首页
METAR-TAF:

METAR-TAF

机场 :

阿鲁沙, 坦桑尼亚

纬度: 03-20S, 经度: 036-37E, 海拔: 1387米

当前天气观测

该预报发布于1小时和34分钟前的18:00 UTC
风速8节,风向东转东南
温度 20°C
湿度 56%
气压 1024 hPa
能见度10公里或以上
少量云层高于2800英尺

METAR: HTAR 171800Z 11008KT 9999 FEW028 20/11 Q1024 NOSIG

时间: 22:34 (19:34 UTC)

预报

该预报发布于2小时和34分钟前的17:00 UTC
预报有效从17日的 18点(UTC)到 18日的 18点(UTC)
风速5节,风向东转东南
能见度10公里或以上
少量云层高于2600英尺

TAF: HTAR 171700Z 1718/1818 11005KT 9999 FEW026

超过4000个机场的气象观测和天气预报(METAR&TAF报告)。

可查询的气象台以黄色和红色小点在地图上表示。

将鼠标移到小点上方,可查看气象台名称。

然后点击查看天气观测和预报。

如需切换地图:点击带黑十字的绿色按钮放大地图;点击带横线的绿色按钮缩小地图;或者点击绿色箭头查看邻近地区的地图。


METAR-TAF: